Steep Hollow, Texas
Current Conditions -  °F | °C
As of 8:53 PM on Sunday 23 Nov 2014 (Local Time) from KCLL Reporting Station
Clear Clear  
Wind Chill: 66°   Ceiling: Unl
Heat Index: 66°   Visibility: 10mi
Dew Point: 48°   Wind: 12mph
Humidity: 52%   Direction: 290°WNW
Pressure: 29.66"   Gusts: 30mph
Location:  30.6361°N, 96.3666°W
Report Text: KCLL 240253Z AUTO 29010G26KT 10SM CLR 19/09 A2966 RMK AO2 PK WND 30026/0247 PRESRR SLP042 T01890089 53039 $
Loading
Personal Weather Stations






























Interactive Weather Map New forecast layout! Learn more

10-Day Weather Forecast

Advertisements
Track Severe Weather on mobile